Stanley, Falkland Islands

2:21 PM FKST on July 23, 2016 (GMT -0300)
McKay Close | | Change Station

Elev 121 ft 51.70 °S, 57.84 °W | Updated 21 minutes ago

Scattered Clouds
Scattered Clouds
35.9 °F
Feels Like 27 °F
N
15.0
Wind Variable Wind from SW
Gusts 42.0 mph

Today
High -- | Low -- °F
--% Chance of Precip.
Yesterday
High -- | Low -- °F
Precip. -- in
Pressure 29.68 in
Visibility 6.2 miles
Clouds Few 1500 ft
Scattered Clouds 8000 ft
Windchill 27 °F
Dew Point 30 °F
Humidity 80%
Rainfall 0.00 in
Snow Depth Not available.
8:40 AM 5:15 PM
Waning Gibbous, 84% visible
METAR EGYP 231650Z 27018KT 9999 FEW015CB SCT080 02/M01 Q1005 BLU TEMPO 4000 -SHSN SCT012CB GRN
Pressure 29.68 in
Visibility 6.2 miles
Clouds Few 1500 ft
Scattered Clouds 8000 ft
Windchill 27 °F
Dew Point 30 °F
Humidity 80%
Rainfall 0.00 in
Snow Depth Not available.
8:40 AM 5:15 PM
Waning Gibbous, 84% visible
METAR EGYP 231650Z 27018KT 9999 FEW015CB SCT080 02/M01 Q1005 BLU TEMPO 4000 -SHSN SCT012CB GRN

10-Day Weather Forecast

No radar image for this location.
×

Almanac

Astronomy

Jul. 23, 2016 Rise Set
Actual Time
Civil Twilight
Nautical Twilight
Astronomical Twilight
Moon
Length of Visible Light
Length of Day
Tomorrow will be .
, % of the Moon is Illuminated

Today's Extremes

Country Highs Country Lows

Community

WunderPhotos

Upload Photos

1,926,875 photos uploaded!

WunderBlog® & News

Nearby

Air Quality

  Air Quality AQ Index Pollutant
Not available.

Snow Depth

Station Depth Elevation

Earthquake Activity

City Distance Mag. Time & Date
Minimum magnitude displayed is 2.5.

Coastal Water Temperatures

Place Temperature

Stations

Nearby Weather Stations

Station Location Temp. Windchill Dew Point Humidity Wind Precip. Elev Updated Type